createdAt,value
2017-04-08T00:00:59.153Z,1020.22
2017-04-08T00:02:09.081Z,1020.22
2017-04-08T00:03:19.319Z,1020.2
2017-04-08T00:04:28.881Z,1020.19
2017-04-08T00:05:39.132Z,1020.17
2017-04-08T00:06:48.755Z,1020.19
2017-04-08T00:07:58.692Z,1020.18
2017-04-08T00:09:08.616Z,1020.15
2017-04-08T00:10:19.093Z,1020.17
2017-04-08T00:11:29.024Z,1020.12
2017-04-08T00:12:38.655Z,1020.1
2017-04-08T00:13:48.581Z,1020.11
2017-04-08T00:14:58.823Z,1020.13
2017-04-08T00:16:08.801Z,1020.12
2017-04-08T00:17:18.737Z,1020.15
2017-04-08T00:18:28.656Z,1020.09
2017-04-08T00:19:38.596Z,1020.09
2017-04-08T00:20:48.205Z,1020.07
2017-04-08T00:21:58.179Z,1020.06
2017-04-08T00:23:08.127Z,1020.05
2017-04-08T00:24:18.046Z,1020.01
2017-04-08T00:25:27.974Z,1020
2017-04-08T00:26:37.915Z,1020.05
2017-04-08T00:27:47.857Z,1020.03
2017-04-08T00:28:57.487Z,1019.99
2017-04-08T00:30:07.434Z,1019.98
2017-04-08T00:31:17.056Z,1020.01
2017-04-08T00:32:26.684Z,1019.99
2017-04-08T00:33:36.975Z,1020.01
2017-04-08T00:34:46.609Z,1020.03
2017-04-08T00:35:56.568Z,1019.99
2017-04-08T00:37:06.876Z,1020.02
2017-04-08T00:38:16.817Z,1020.01
2017-04-08T00:39:26.985Z,1020
2017-04-08T00:40:36.913Z,1020.03
2017-04-08T00:41:46.838Z,1019.99
2017-04-08T00:42:56.455Z,1019.97
2017-04-08T00:44:06.406Z,1019.98
2017-04-08T00:45:16.695Z,1019.96
2017-04-08T00:46:26.616Z,1019.98
2017-04-08T00:47:36.554Z,1019.96
2017-04-08T00:48:45.974Z,1019.95
2017-04-08T00:49:55.904Z,1019.97
2017-04-08T00:51:06.400Z,1019.95
2017-04-08T00:52:16.664Z,1019.97
2017-04-08T00:53:26.605Z,1019.97
2017-04-08T00:54:36.564Z,1019.93
2017-04-08T00:55:46.502Z,1019.97
2017-04-08T00:56:56.849Z,1019.97
2017-04-08T00:58:06.816Z,1019.96
2017-04-08T00:59:16.755Z,1019.94
2017-04-08T01:00:27.020Z,1019.92
2017-04-08T01:01:36.962Z,1019.94
2017-04-08T01:02:47.159Z,1019.94
2017-04-08T01:03:57.415Z,1019.95
2017-04-08T01:05:07.065Z,1019.93
2017-04-08T01:06:17.004Z,1019.93
2017-04-08T01:07:26.926Z,1019.89
2017-04-08T01:08:37.418Z,1019.89
2017-04-08T01:09:47.026Z,1019.89
2017-04-08T01:10:56.955Z,1019.88
2017-04-08T01:12:06.879Z,1019.94
2017-04-08T01:13:17.106Z,1019.89
2017-04-08T01:14:26.268Z,1019.87
2017-04-08T01:15:36.194Z,1019.88
2017-04-08T01:16:46.430Z,1019.9
2017-04-08T01:17:56.375Z,1019.87
2017-04-08T01:19:05.990Z,1019.91
2017-04-08T01:20:16.083Z,1019.87
2017-04-08T01:21:26.025Z,1019.85
2017-04-08T01:22:35.686Z,1019.86
2017-04-08T01:23:45.626Z,1019.93
2017-04-08T01:24:55.875Z,1019.89
2017-04-08T01:26:05.749Z,1019.92
2017-04-08T01:27:15.677Z,1019.85
2017-04-08T01:28:25.614Z,1019.9
2017-04-08T01:29:35.532Z,1019.85
2017-04-08T01:30:45.456Z,1019.87
2017-04-08T01:31:55.713Z,1019.85
2017-04-08T01:33:05.661Z,1019.83
2017-04-08T01:35:57.003Z,1019.83
2017-04-08T01:37:06.109Z,1019.82
2017-04-08T01:38:16.027Z,1019.84
2017-04-08T01:39:25.319Z,1019.82
2017-04-08T01:40:35.237Z,1019.81
2017-04-08T01:41:45.462Z,1019.79
2017-04-08T01:42:55.859Z,1019.79
2017-04-08T01:44:06.100Z,1019.75
2017-04-08T01:45:16.324Z,1019.76
2017-04-08T01:46:26.549Z,1019.76
2017-04-08T01:47:36.170Z,1019.79
2017-04-08T01:48:45.569Z,1019.74
2017-04-08T01:49:55.790Z,1019.77
2017-04-08T01:51:06.036Z,1019.78
2017-04-08T01:52:15.958Z,1019.77
2017-04-08T01:53:25.880Z,1019.79
2017-04-08T01:54:35.956Z,1019.74
2017-04-08T01:55:46.186Z,1019.76
2017-04-08T01:56:56.103Z,1019.77
2017-04-08T01:58:05.398Z,1019.76
2017-04-08T01:59:15.001Z,1019.77
2017-04-08T02:00:25.329Z,1019.79
2017-04-08T02:01:35.232Z,1019.74
2017-04-08T02:02:45.151Z,1019.76
2017-04-08T02:03:55.370Z,1019.76
2017-04-08T02:05:04.966Z,1019.79
2017-04-08T02:06:14.722Z,1019.79
2017-04-08T02:07:24.636Z,1019.81
2017-04-08T02:08:34.539Z,1019.74
2017-04-08T02:09:44.784Z,1019.76
2017-04-08T02:10:55.383Z,1019.77
2017-04-08T02:12:05.140Z,1019.76
2017-04-08T02:13:14.428Z,1019.76
2017-04-08T02:14:24.335Z,1019.75
2017-04-08T02:15:33.928Z,1019.72
2017-04-08T02:16:42.916Z,1019.72
2017-04-08T02:17:52.979Z,1019.75
2017-04-08T02:19:02.896Z,1019.73
2017-04-08T02:20:12.807Z,1019.72
2017-04-08T02:21:22.435Z,1019.76
2017-04-08T02:22:32.354Z,1019.71
2017-04-08T02:23:42.735Z,1019.71
2017-04-08T02:24:52.958Z,1019.68
2017-04-08T02:26:02.878Z,1019.71
2017-04-08T02:27:12.486Z,1019.73
2017-04-08T02:28:22.714Z,1019.72
2017-04-08T02:29:33.090Z,1019.75
2017-04-08T02:30:43.012Z,1019.69
2017-04-08T02:31:53.241Z,1019.69
2017-04-08T02:33:03.154Z,1019.7
2017-04-08T02:34:13.066Z,1019.74
2017-04-08T02:35:23.281Z,1019.74
2017-04-08T02:36:33.195Z,1019.72
2017-04-08T02:37:42.799Z,1019.72
2017-04-08T02:38:52.102Z,1019.71
2017-04-08T02:40:02.332Z,1019.71
2017-04-08T02:41:12.291Z,1019.7
2017-04-08T02:42:22.191Z,1019.72
2017-04-08T02:43:32.403Z,1019.69
2017-04-08T02:44:42.313Z,1019.71
2017-04-08T02:45:52.234Z,1019.7
2017-04-08T02:47:02.702Z,1019.72
2017-04-08T02:48:12.924Z,1019.67
2017-04-08T02:49:22.570Z,1019.69
2017-04-08T02:50:32.487Z,1019.72
2017-04-08T02:51:42.739Z,1019.64
2017-04-08T02:52:52.497Z,1019.65
2017-04-08T02:54:02.728Z,1019.69
2017-04-08T02:55:12.638Z,1019.67
2017-04-08T02:56:22.243Z,1019.71
2017-04-08T02:57:32.464Z,1019.68
2017-04-08T02:58:42.831Z,1019.69
2017-04-08T02:59:52.736Z,1019.69
2017-04-08T03:01:02.337Z,1019.71
2017-04-08T03:02:12.595Z,1019.72
2017-04-08T03:03:22.810Z,1019.71
2017-04-08T03:04:32.970Z,1019.74
2017-04-08T03:05:42.874Z,1019.77
2017-04-08T03:06:52.801Z,1019.78
2017-04-08T03:08:03.034Z,1019.73
2017-04-08T03:09:12.956Z,1019.73
2017-04-08T03:10:23.177Z,1019.74
2017-04-08T03:11:33.088Z,1019.73
2017-04-08T03:12:43.017Z,1019.71
2017-04-08T03:13:52.631Z,1019.72
2017-04-08T03:15:02.528Z,1019.75
2017-04-08T03:16:13.496Z,1019.7
2017-04-08T03:17:23.411Z,1019.73
2017-04-08T03:18:33.639Z,1019.71
2017-04-08T03:19:43.555Z,1019.73
2017-04-08T03:20:53.172Z,1019.74
2017-04-08T03:22:03.545Z,1019.73
2017-04-08T03:23:12.866Z,1019.71
2017-04-08T03:24:23.079Z,1019.67
2017-04-08T03:25:33.006Z,1019.68
2017-04-08T03:26:43.233Z,1019.73
2017-04-08T03:27:53.711Z,1019.69
2017-04-08T03:29:03.642Z,1019.73
2017-04-08T03:30:13.853Z,1019.74
2017-04-08T03:31:24.065Z,1019.73
2017-04-08T03:32:34.290Z,1019.74
2017-04-08T03:33:44.657Z,1019.75
2017-04-08T03:34:54.898Z,1019.71
2017-04-08T03:36:05.146Z,1019.7
2017-04-08T03:37:15.066Z,1019.74
2017-04-08T03:38:24.984Z,1019.73
2017-04-08T03:39:35.053Z,1019.74
2017-04-08T03:40:45.282Z,1019.75
2017-04-08T03:41:55.501Z,1019.75
2017-04-08T03:43:05.418Z,1019.75
2017-04-08T03:44:15.635Z,1019.75
2017-04-08T03:45:25.695Z,1019.77
2017-04-08T03:46:35.603Z,1019.76
2017-04-08T03:47:45.524Z,1019.76
2017-04-08T03:48:55.435Z,1019.76
2017-04-08T03:50:05.653Z,1019.75
2017-04-08T03:51:15.923Z,1019.74
2017-04-08T03:52:25.837Z,1019.75
2017-04-08T03:53:35.757Z,1019.76
2017-04-08T03:54:45.678Z,1019.77
2017-04-08T03:55:55.309Z,1019.78
2017-04-08T03:57:05.673Z,1019.82
2017-04-08T03:58:15.617Z,1019.75
2017-04-08T03:59:25.843Z,1019.78
2017-04-08T04:00:35.761Z,1019.72
2017-04-08T04:01:46.010Z,1019.71
2017-04-08T04:02:56.504Z,1019.75
2017-04-08T04:04:06.776Z,1019.73
2017-04-08T04:05:17.000Z,1019.7
2017-04-08T04:06:27.221Z,1019.72
2017-04-08T04:07:37.442Z,1019.7
2017-04-08T04:08:47.604Z,1019.72
2017-04-08T04:09:57.825Z,1019.73
2017-04-08T04:11:08.068Z,1019.75
2017-04-08T04:12:18.296Z,1019.73
2017-04-08T04:13:28.516Z,1019.71
2017-04-08T04:14:39.033Z,1019.73
2017-04-08T04:15:48.958Z,1019.75
2017-04-08T04:16:58.870Z,1019.76
2017-04-08T04:18:08.786Z,1019.74
2017-04-08T04:19:18.711Z,1019.77
2017-04-08T04:20:29.377Z,1019.78
2017-04-08T04:21:39.596Z,1019.78
2017-04-08T04:22:48.885Z,1019.78
2017-04-08T04:23:58.537Z,1019.78
2017-04-08T04:25:08.471Z,1019.83
2017-04-08T04:26:18.542Z,1019.82
2017-04-08T04:27:28.776Z,1019.81
2017-04-08T04:28:38.709Z,1019.86
2017-04-08T04:29:48.648Z,1019.87
2017-04-08T04:30:58.566Z,1019.86
2017-04-08T04:32:08.841Z,1019.85
2017-04-08T04:33:18.442Z,1019.85
2017-04-08T04:34:27.758Z,1019.91
2017-04-08T04:35:37.662Z,1019.92
2017-04-08T04:36:46.975Z,1019.93
2017-04-08T04:37:57.148Z,1019.95
2017-04-08T04:39:06.761Z,1019.97
2017-04-08T04:40:16.370Z,1019.97
2017-04-08T04:41:26.287Z,1019.98
2017-04-08T04:42:35.893Z,1019.91
2017-04-08T04:43:46.227Z,1019.93
2017-04-08T04:44:56.177Z,1019.94
2017-04-08T04:46:06.112Z,1019.95
2017-04-08T04:47:16.337Z,1019.98
2017-04-08T04:48:25.642Z,1019.98
2017-04-08T04:49:35.506Z,1019.97
2017-04-08T04:50:45.112Z,1019.98
2017-04-08T04:51:55.650Z,1019.99
2017-04-08T04:53:05.870Z,1019.97
2017-04-08T04:54:15.481Z,1020
2017-04-08T04:55:25.041Z,1020.02
2017-04-08T04:56:34.956Z,1020.01
2017-04-08T04:57:44.553Z,1019.99
2017-04-08T04:58:54.475Z,1019.99
2017-04-08T05:00:04.089Z,1020.02
2017-04-08T05:01:15.306Z,1020.06
2017-04-08T05:02:25.222Z,1020
2017-04-08T05:03:35.139Z,1020.05
2017-04-08T05:04:45.373Z,1020
2017-04-08T05:05:55.595Z,1020.03
2017-04-08T05:07:05.631Z,1020.06
2017-04-08T05:08:15.876Z,1020.03
2017-04-08T05:09:25.180Z,1020.05
2017-04-08T05:10:35.106Z,1020.07
2017-04-08T05:11:45.015Z,1020.06
2017-04-08T05:12:55.287Z,1020.09
2017-04-08T05:14:04.895Z,1020.08
2017-04-08T05:15:14.502Z,1020.11
2017-04-08T05:16:24.108Z,1020.09
2017-04-08T05:17:33.711Z,1020.11
2017-04-08T05:18:43.566Z,1020.11
2017-04-08T05:19:53.782Z,1020.13
2017-04-08T05:21:03.721Z,1020.14
2017-04-08T05:22:13.953Z,1020.14
2017-04-08T05:23:24.179Z,1020.2
2017-04-08T05:24:34.245Z,1020.19
2017-04-08T05:25:43.873Z,1020.19
2017-04-08T05:26:53.855Z,1020.21
2017-04-08T05:28:03.490Z,1020.24
2017-04-08T05:29:13.433Z,1020.3
2017-04-08T05:30:23.609Z,1020.29
2017-04-08T05:31:33.695Z,1020.31
2017-04-08T05:32:43.940Z,1020.31
2017-04-08T05:33:53.557Z,1020.31
2017-04-08T05:35:03.499Z,1020.33
2017-04-08T05:36:13.550Z,1020.33
2017-04-08T05:37:23.177Z,1020.32
2017-04-08T05:38:33.096Z,1020.29
2017-04-08T05:39:43.327Z,1020.29
2017-04-08T05:40:52.940Z,1020.29
2017-04-08T05:42:03.104Z,1020.27
2017-04-08T05:43:12.400Z,1020.29
2017-04-08T05:44:23.011Z,1020.32
2017-04-08T05:45:32.922Z,1020.32
2017-04-08T05:46:42.823Z,1020.29
2017-04-08T05:47:53.199Z,1020.3
2017-04-08T05:49:03.120Z,1020.3
2017-04-08T05:50:12.743Z,1020.33
2017-04-08T05:51:22.665Z,1020.31
2017-04-08T05:52:32.288Z,1020.34
2017-04-08T05:53:42.523Z,1020.32
2017-04-08T05:54:52.443Z,1020.29
2017-04-08T05:56:02.375Z,1020.33
2017-04-08T05:57:12.601Z,1020.34
2017-04-08T05:58:21.911Z,1020.32
2017-04-08T05:59:31.939Z,1020.32
2017-04-08T06:00:42.162Z,1020.28
2017-04-08T06:01:52.062Z,1020.27
2017-04-08T06:03:01.979Z,1020.23
2017-04-08T06:04:12.193Z,1020.26
2017-04-08T06:05:21.899Z,1020.28
2017-04-08T06:06:31.839Z,1020.23
2017-04-08T06:07:41.757Z,1020.29
2017-04-08T06:08:51.678Z,1020.28
2017-04-08T06:10:01.632Z,1020.29
2017-04-08T06:11:12.108Z,1020.29
2017-04-08T06:12:22.027Z,1020.3
2017-04-08T06:13:32.249Z,1020.3
2017-04-08T06:14:41.868Z,1020.32
2017-04-08T06:15:51.786Z,1020.29
2017-04-08T06:17:02.349Z,1020.31
2017-04-08T06:18:11.974Z,1020.33
2017-04-08T06:19:22.201Z,1020.32
2017-04-08T06:20:32.119Z,1020.3
2017-04-08T06:21:42.342Z,1020.33
2017-04-08T06:22:52.722Z,1020.32
2017-04-08T06:24:02.327Z,1020.34
2017-04-08T06:25:11.940Z,1020.34
2017-04-08T06:26:21.850Z,1020.33
2017-04-08T06:27:31.774Z,1020.36
2017-04-08T06:28:42.021Z,1020.33
2017-04-08T06:29:51.941Z,1020.38
2017-04-08T06:31:01.579Z,1020.36
2017-04-08T06:32:11.492Z,1020.36
2017-04-08T06:33:21.430Z,1020.35
2017-04-08T06:34:31.617Z,1020.34
2017-04-08T06:35:41.566Z,1020.35
2017-04-08T06:36:51.184Z,1020.36
2017-04-08T06:38:01.123Z,1020.34
2017-04-08T06:39:11.356Z,1020.33
2017-04-08T06:40:21.937Z,1020.36
2017-04-08T06:41:31.874Z,1020.37
2017-04-08T06:42:41.842Z,1020.38
2017-04-08T06:43:52.074Z,1020.35
2017-04-08T06:45:01.691Z,1020.35
2017-04-08T06:46:11.707Z,1020.35
2017-04-08T06:47:21.938Z,1020.33
2017-04-08T06:48:31.859Z,1020.35
2017-04-08T06:49:42.467Z,1020.38
2017-04-08T06:50:52.100Z,1020.4
2017-04-08T06:52:02.057Z,1020.38
2017-04-08T06:53:12.311Z,1020.39
2017-04-08T06:54:22.236Z,1020.41
2017-04-08T06:55:32.146Z,1020.4
2017-04-08T06:56:42.053Z,1020.4
2017-04-08T06:57:51.771Z,1020.39
2017-04-08T06:59:01.675Z,1020.39
2017-04-08T07:00:11.615Z,1020.41
2017-04-08T07:01:21.886Z,1020.43
2017-04-08T07:02:31.746Z,1020.44
2017-04-08T07:03:42.029Z,1020.44
2017-04-08T07:04:52.241Z,1020.46
2017-04-08T07:06:02.512Z,1020.45
2017-04-08T07:07:12.427Z,1020.45
2017-04-08T07:08:22.323Z,1020.44
2017-04-08T07:09:32.923Z,1020.44
2017-04-08T07:10:42.851Z,1020.44
2017-04-08T07:11:53.048Z,1020.47
2017-04-08T07:13:02.960Z,1020.46
2017-04-08T07:14:12.891Z,1020.46
2017-04-08T07:15:22.681Z,1020.48
2017-04-08T07:16:31.680Z,1020.48
2017-04-08T07:17:41.901Z,1020.47
2017-04-08T07:18:51.806Z,1020.47
2017-04-08T07:20:01.432Z,1020.44
2017-04-08T07:21:10.527Z,1020.43
2017-04-08T07:22:20.893Z,1020.46
2017-04-08T07:23:30.825Z,1020.46
2017-04-08T07:24:40.441Z,1020.46
2017-04-08T07:25:50.709Z,1020.47
2017-04-08T07:27:01.093Z,1020.49
2017-04-08T07:28:11.331Z,1020.48
2017-04-08T07:29:21.578Z,1020.52
2017-04-08T07:30:31.809Z,1020.52
2017-04-08T07:31:42.031Z,1020.51
2017-04-08T07:32:52.054Z,1020.49
2017-04-08T07:34:01.961Z,1020.54
2017-04-08T07:35:11.584Z,1020.52
2017-04-08T07:36:21.799Z,1020.55
2017-04-08T07:37:31.406Z,1020.56
2017-04-08T07:38:41.679Z,1020.57
2017-04-08T07:39:50.973Z,1020.57
2017-04-08T07:41:00.574Z,1020.6
2017-04-08T07:42:10.800Z,1020.57
2017-04-08T07:43:20.407Z,1020.64
2017-04-08T07:44:31.021Z,1020.59
2017-04-08T07:45:40.960Z,1020.58
2017-04-08T07:46:50.935Z,1020.61
2017-04-08T07:48:00.906Z,1020.61
2017-04-08T07:49:10.847Z,1020.6
2017-04-08T07:50:20.998Z,1020.63
2017-04-08T07:51:31.390Z,1020.6
2017-04-08T07:52:41.304Z,1020.61
2017-04-08T07:53:51.531Z,1020.64
2017-04-08T07:55:01.447Z,1020.65
2017-04-08T07:56:11.347Z,1020.62
2017-04-08T07:57:20.949Z,1020.62
2017-04-08T07:58:30.879Z,1020.61
2017-04-08T07:59:40.816Z,1020.62
2017-04-08T08:00:51.041Z,1020.7
2017-04-08T08:02:01.114Z,1020.6
2017-04-08T08:03:10.721Z,1020.62
2017-04-08T08:04:20.952Z,1020.66
2017-04-08T08:05:30.911Z,1020.66
2017-04-08T08:06:41.141Z,1020.68
2017-04-08T08:07:51.338Z,1020.67
2017-04-08T08:09:01.578Z,1020.68
2017-04-08T08:10:11.809Z,1020.68
2017-04-08T08:11:21.715Z,1020.67
2017-04-08T08:12:31.635Z,1020.64
2017-04-08T08:13:41.903Z,1020.65
2017-04-08T08:14:51.499Z,1020.7
2017-04-08T08:16:01.712Z,1020.68
2017-04-08T08:17:11.926Z,1020.68
2017-04-08T08:18:22.143Z,1020.68
2017-04-08T08:19:32.360Z,1020.7
2017-04-08T08:20:43.249Z,1020.72
2017-04-08T08:21:53.160Z,1020.68
2017-04-08T08:23:02.452Z,1020.7
2017-04-08T08:24:12.052Z,1020.68
2017-04-08T08:25:22.231Z,1020.72
2017-04-08T08:26:31.886Z,1020.71
2017-04-08T08:27:41.495Z,1020.71
2017-04-08T08:28:51.400Z,1020.71
2017-04-08T08:30:01.635Z,1020.69
2017-04-08T08:31:11.894Z,1020.71
2017-04-08T08:32:21.798Z,1020.7
2017-04-08T08:33:31.712Z,1020.67
2017-04-08T08:34:41.665Z,1020.71
2017-04-08T08:35:51.279Z,1020.68
2017-04-08T08:37:01.465Z,1020.66
2017-04-08T08:38:11.082Z,1020.68
2017-04-08T08:39:20.953Z,1020.64
2017-04-08T08:40:30.890Z,1020.66
2017-04-08T08:41:40.828Z,1020.68
2017-04-08T08:42:50.744Z,1020.67
2017-04-08T08:44:00.673Z,1020.71
2017-04-08T08:45:10.304Z,1020.69
2017-04-08T08:46:20.215Z,1020.64
2017-04-08T08:47:30.170Z,1020.69
2017-04-08T08:48:40.495Z,1020.66
2017-04-08T08:49:50.771Z,1020.7
2017-04-08T08:51:00.684Z,1020.67
2017-04-08T08:52:10.305Z,1020.68
2017-04-08T08:53:20.213Z,1020.7
2017-04-08T08:54:30.284Z,1020.71
2017-04-08T08:55:40.497Z,1020.71
2017-04-08T08:56:50.125Z,1020.74
2017-04-08T08:58:00.038Z,1020.72
2017-04-08T08:59:10.290Z,1020.71
2017-04-08T09:00:20.509Z,1020.71
2017-04-08T09:01:30.746Z,1020.71
2017-04-08T09:02:40.993Z,1020.73
2017-04-08T09:03:50.925Z,1020.72
2017-04-08T09:05:01.205Z,1020.73
2017-04-08T09:06:11.163Z,1020.74
2017-04-08T09:07:21.081Z,1020.74
2017-04-08T09:08:31.086Z,1020.72
2017-04-08T09:09:40.092Z,1020.7
2017-04-08T09:10:49.712Z,1020.68
2017-04-08T09:12:00.200Z,1020.7
2017-04-08T09:13:10.122Z,1020.73
2017-04-08T09:14:19.725Z,1020.7
2017-04-08T09:15:29.346Z,1020.7
2017-04-08T09:16:39.290Z,1020.69
2017-04-08T09:17:49.692Z,1020.69
2017-04-08T09:18:59.323Z,1020.66
2017-04-08T09:20:09.562Z,1020.66
2017-04-08T09:21:19.524Z,1020.64
2017-04-08T09:22:29.165Z,1020.65
2017-04-08T09:23:39.744Z,1020.66
2017-04-08T09:24:49.671Z,1020.67
2017-04-08T09:25:59.308Z,1020.68
2017-04-08T09:27:08.934Z,1020.68
2017-04-08T09:28:19.152Z,1020.67
2017-04-08T09:29:29.417Z,1020.7
2017-04-08T09:30:39.032Z,1020.67
2017-04-08T09:31:48.956Z,1020.68
2017-04-08T09:32:58.565Z,1020.69
2017-04-08T09:34:07.569Z,1020.65
2017-04-08T09:35:18.103Z,1020.63
2017-04-08T09:36:28.046Z,1020.64
2017-04-08T09:37:37.667Z,1020.65
2017-04-08T09:38:46.981Z,1020.61
2017-04-08T09:39:56.613Z,1020.6
2017-04-08T09:41:06.802Z,1020.59
2017-04-08T09:42:16.756Z,1020.63
2017-04-08T09:43:27.008Z,1020.62
2017-04-08T09:44:37.289Z,1020.63
2017-04-08T09:45:46.925Z,1020.63
2017-04-08T09:46:56.944Z,1020.61
2017-04-08T09:48:06.874Z,1020.65
2017-04-08T09:49:16.508Z,1020.67
2017-04-08T09:50:26.748Z,1020.68
2017-04-08T09:51:36.682Z,1020.69
2017-04-08T09:52:47.005Z,1020.64
2017-04-08T09:53:57.278Z,1020.65
2017-04-08T09:55:07.520Z,1020.66
2017-04-08T09:56:17.438Z,1020.67
2017-04-08T09:57:27.666Z,1020.69
2017-04-08T09:58:38.065Z,1020.67
2017-04-08T09:59:48.335Z,1020.66
2017-04-08T10:00:57.980Z,1020.67
2017-04-08T10:02:07.905Z,1020.68
2017-04-08T10:03:18.127Z,1020.66
2017-04-08T10:04:28.227Z,1020.68
2017-04-08T10:05:38.148Z,1020.63
2017-04-08T10:06:48.366Z,1020.65
2017-04-08T10:07:58.358Z,1020.64
2017-04-08T10:09:08.411Z,1020.67
2017-04-08T10:10:18.683Z,1020.64
2017-04-08T10:11:28.622Z,1020.66
2017-04-08T10:12:38.937Z,1020.62
2017-04-08T10:13:48.899Z,1020.66
2017-04-08T10:14:58.508Z,1020.67
2017-04-08T10:16:08.961Z,1020.65
2017-04-08T10:17:19.195Z,1020.66
2017-04-08T10:18:29.134Z,1020.61
2017-04-08T10:19:39.090Z,1020.61
2017-04-08T10:20:49.336Z,1020.63
2017-04-08T10:21:58.840Z,1020.61
2017-04-08T10:23:08.753Z,1020.55
2017-04-08T10:24:18.678Z,1020.55
2017-04-08T10:25:28.970Z,1020.57
2017-04-08T10:26:39.221Z,1020.57
2017-04-08T10:27:49.318Z,1020.55
2017-04-08T10:28:59.232Z,1020.55
2017-04-08T10:30:08.867Z,1020.55
2017-04-08T10:31:18.801Z,1020.55
2017-04-08T10:32:28.751Z,1020.53
2017-04-08T10:33:39.035Z,1020.57
2017-04-08T10:34:49.273Z,1020.53
2017-04-08T10:35:58.904Z,1020.51
2017-04-08T10:37:09.202Z,1020.53
2017-04-08T10:38:19.419Z,1020.5
2017-04-08T10:39:29.482Z,1020.44
2017-04-08T10:40:39.706Z,1020.47
2017-04-08T10:41:49.639Z,1020.42
2017-04-08T10:42:59.858Z,1020.44
2017-04-08T10:44:10.091Z,1020.43
2017-04-08T10:45:20.101Z,1020.42
2017-04-08T10:46:30.008Z,1020.41
2017-04-08T10:47:40.309Z,1020.4
2017-04-08T10:48:50.528Z,1020.4
2017-04-08T10:50:00.790Z,1020.37
2017-04-08T10:51:11.327Z,1020.32
2017-04-08T10:52:20.326Z,1020.31
2017-04-08T10:53:30.573Z,1020.34
2017-04-08T10:54:40.826Z,1020.33
2017-04-08T10:55:50.742Z,1020.31
2017-04-08T10:57:00.844Z,1020.29
2017-04-08T10:58:11.075Z,1020.29
2017-04-08T10:59:21.324Z,1020.26
2017-04-08T11:00:31.558Z,1020.22
2017-04-08T11:01:40.867Z,1020.26
2017-04-08T11:02:50.759Z,1020.21
2017-04-08T11:04:00.682Z,1020.22
2017-04-08T11:05:09.974Z,1020.19
2017-04-08T11:06:20.261Z,1020.14
2017-04-08T11:07:30.487Z,1020.15
2017-04-08T11:08:39.946Z,1020.11
2017-04-08T11:09:50.177Z,1020.06
2017-04-08T11:10:59.788Z,1020.08
2017-04-08T11:12:09.419Z,1020.06
2017-04-08T11:13:19.643Z,1020.05
2017-04-08T11:14:30.139Z,1020.08
2017-04-08T11:15:40.171Z,1020.04
2017-04-08T11:16:50.394Z,1020.05
2017-04-08T11:18:00.300Z,1020.03
2017-04-08T11:19:10.225Z,1020.07
2017-04-08T11:20:20.474Z,1020.02
2017-04-08T11:21:29.773Z,1020
2017-04-08T11:22:39.712Z,1020
2017-04-08T11:23:49.640Z,1020
2017-04-08T11:24:59.249Z,1019.96
2017-04-08T11:26:08.808Z,1019.96
2017-04-08T11:27:18.743Z,1019.94
2017-04-08T11:28:28.986Z,1019.95
2017-04-08T11:29:38.661Z,1019.94
2017-04-08T11:30:48.611Z,1019.91
2017-04-08T11:31:58.789Z,1019.88
2017-04-08T11:33:08.431Z,1019.9
2017-04-08T11:34:18.363Z,1019.94
2017-04-08T11:35:27.684Z,1019.88
2017-04-08T11:36:36.991Z,1019.88
2017-04-08T11:37:47.213Z,1019.88
2017-04-08T11:38:57.453Z,1019.87
2017-04-08T11:40:06.765Z,1019.85
2017-04-08T11:41:16.707Z,1019.85
2017-04-08T11:42:26.338Z,1019.85
2017-04-08T11:43:36.262Z,1019.83
2017-04-08T11:44:46.501Z,1019.84
2017-04-08T11:45:56.733Z,1019.87
2017-04-08T11:47:06.971Z,1019.81
2017-04-08T11:48:16.599Z,1019.84
2017-04-08T11:49:26.172Z,1019.82
2017-04-08T11:50:35.815Z,1019.82
2017-04-08T11:51:45.771Z,1019.76
2017-04-08T11:52:55.694Z,1019.76
2017-04-08T11:54:05.298Z,1019.71
2017-04-08T11:55:15.199Z,1019.71
2017-04-08T11:56:25.410Z,1019.76
2017-04-08T11:57:35.629Z,1019.71
2017-04-08T11:58:45.271Z,1019.66
2017-04-08T11:59:55.492Z,1019.67
2017-04-08T12:01:05.657Z,1019.62
2017-04-08T12:02:15.023Z,1019.61
2017-04-08T12:03:24.334Z,1019.63
2017-04-08T12:04:34.933Z,1019.61
2017-04-08T12:05:44.535Z,1019.62
2017-04-08T12:06:55.556Z,1019.62
2017-04-08T12:08:05.166Z,1019.63
2017-04-08T12:09:14.881Z,1019.64
2017-04-08T12:10:25.129Z,1019.67
2017-04-08T12:11:35.277Z,1019.73
2017-04-08T12:12:45.362Z,1019.6
2017-04-08T12:13:54.671Z,1019.6
2017-04-08T12:15:05.266Z,1019.61
2017-04-08T12:16:15.186Z,1019.59
2017-04-08T12:17:25.111Z,1019.6
2017-04-08T12:18:35.634Z,1019.6
2017-04-08T12:19:46.753Z,1019.61
2017-04-08T12:20:56.369Z,1019.59
2017-04-08T12:22:06.587Z,1019.57
2017-04-08T12:23:16.840Z,1019.6
2017-04-08T12:24:27.125Z,1019.63
2017-04-08T12:25:37.045Z,1019.55
2017-04-08T12:26:46.960Z,1019.54
2017-04-08T12:27:56.888Z,1019.55
2017-04-08T12:29:07.099Z,1019.53
2017-04-08T12:30:17.327Z,1019.52
2017-04-08T12:31:27.063Z,1019.5
2017-04-08T12:32:36.986Z,1019.5
2017-04-08T12:33:47.204Z,1019.48
2017-04-08T12:34:56.977Z,1019.5
2017-04-08T12:36:08.063Z,1019.45
2017-04-08T12:37:18.281Z,1019.45
2017-04-08T12:38:28.497Z,1019.45
2017-04-08T12:39:38.715Z,1019.41
2017-04-08T12:40:48.965Z,1019.41
2017-04-08T12:41:59.372Z,1019.41
2017-04-08T12:43:09.674Z,1019.4
2017-04-08T12:44:19.949Z,1019.38
2017-04-08T12:45:30.200Z,1019.41
2017-04-08T12:46:40.110Z,1019.36
2017-04-08T12:47:49.967Z,1019.39
2017-04-08T12:49:00.248Z,1019.37
2017-04-08T12:50:10.857Z,1019.36
2017-04-08T12:51:20.713Z,1019.31
2017-04-08T12:52:31.168Z,1019.32
2017-04-08T12:53:40.843Z,1019.29
2017-04-08T12:54:51.170Z,1019.28
2017-04-08T12:56:00.517Z,1019.29
2017-04-08T12:57:10.723Z,1019.28
2017-04-08T12:58:20.349Z,1019.25
2017-04-08T12:59:30.368Z,1019.29
2017-04-08T13:00:39.975Z,1019.24
2017-04-08T13:01:49.915Z,1019.26
2017-04-08T13:02:59.527Z,1019.24
2017-04-08T13:04:09.461Z,1019.23
2017-04-08T13:05:19.465Z,1019.2
2017-04-08T13:06:29.674Z,1019.26
2017-04-08T13:07:39.584Z,1019.21
2017-04-08T13:08:49.893Z,1019.25
2017-04-08T13:09:59.806Z,1019.21
2017-04-08T13:11:09.604Z,1019.21
2017-04-08T13:12:19.511Z,1019.22
2017-04-08T13:13:29.431Z,1019.13
2017-04-08T13:14:39.059Z,1019.17
2017-04-08T13:15:49.017Z,1019.1
2017-04-08T13:16:59.099Z,1019.11
2017-04-08T13:18:08.745Z,1019.1
2017-04-08T13:19:18.402Z,1019.07
2017-04-08T13:20:28.425Z,1019.03
2017-04-08T13:21:38.701Z,1019.03
2017-04-08T13:22:49.046Z,1019.04
2017-04-08T13:23:58.711Z,1019.08
2017-04-08T13:25:08.953Z,1019.04
2017-04-08T13:26:19.278Z,1018.99
2017-04-08T13:27:29.214Z,1019.02
2017-04-08T13:28:39.394Z,1018.91
2017-04-08T13:29:49.319Z,1018.96
2017-04-08T13:30:59.562Z,1019.04
2017-04-08T13:32:09.484Z,1018.96
2017-04-08T13:33:19.398Z,1019
2017-04-08T13:34:30.449Z,1018.95
2017-04-08T13:35:40.117Z,1018.99
2017-04-08T13:36:50.037Z,1018.98
2017-04-08T13:37:59.960Z,1018.9
2017-04-08T13:39:10.188Z,1018.93
2017-04-08T13:40:19.789Z,1018.92
2017-04-08T13:41:30.032Z,1018.89
2017-04-08T13:42:39.964Z,1018.82
2017-04-08T13:43:49.581Z,1018.87
2017-04-08T13:44:59.495Z,1018.86
2017-04-08T13:46:10.053Z,1018.88
2017-04-08T13:47:20.281Z,1018.86
2017-04-08T13:48:29.581Z,1018.87
2017-04-08T13:49:39.211Z,1018.89
2017-04-08T13:50:48.843Z,1018.86
2017-04-08T13:51:59.035Z,1018.82
2017-04-08T13:53:09.279Z,1018.8
2017-04-08T13:54:18.892Z,1018.79
2017-04-08T13:55:29.171Z,1018.8
2017-04-08T13:56:38.176Z,1018.85
2017-04-08T13:57:47.881Z,1018.82
2017-04-08T13:58:57.815Z,1018.8
2017-04-08T14:00:07.116Z,1018.79
2017-04-08T14:01:17.039Z,1018.76
2017-04-08T14:02:27.280Z,1018.79
2017-04-08T14:03:37.308Z,1018.77
2017-04-08T14:04:47.247Z,1018.73
2017-04-08T14:05:57.524Z,1018.77
2017-04-08T14:07:07.447Z,1018.76
2017-04-08T14:08:17.749Z,1018.76
2017-04-08T14:09:27.933Z,1018.73
2017-04-08T14:10:38.161Z,1018.7
2017-04-08T14:11:48.096Z,1018.71